createdAt,value
2019-03-02T00:02:14.034Z,98168.41
2019-03-02T00:04:45.891Z,98169.91
2019-03-02T00:07:12.535Z,98164.59
2019-03-02T00:09:41.311Z,98169.13
2019-03-02T00:12:09.689Z,98164.05
2019-03-02T00:14:38.317Z,98163.28
2019-03-02T00:17:06.729Z,98161.73
2019-03-02T00:19:35.127Z,98166.68
2019-03-02T00:22:06.633Z,98164.62
2019-03-02T00:24:33.646Z,98168.98
2019-03-02T00:27:02.051Z,98168.30
2019-03-02T00:29:30.443Z,98172.45
2019-03-02T00:31:58.849Z,98169.64
2019-03-02T00:34:46.909Z,98168.33
2019-03-02T00:37:15.333Z,98163.66
2019-03-02T00:39:43.960Z,98169.49
2019-03-02T00:42:13.534Z,98160.88
2019-03-02T00:44:42.481Z,98165.80
2019-03-02T00:47:11.153Z,98165.07
2019-03-02T00:49:39.532Z,98169.28
2019-03-02T00:52:07.942Z,98162.94
2019-03-02T00:54:36.585Z,98167.67
2019-03-02T00:57:05.220Z,98171.30
2019-03-02T00:59:35.789Z,98168.19
2019-03-02T01:02:05.542Z,98171.58
2019-03-02T01:04:34.405Z,98172.13
2019-03-02T01:07:03.086Z,98171.45
2019-03-02T01:09:31.774Z,98177.09
2019-03-02T01:12:00.459Z,98166.48
2019-03-02T01:14:31.854Z,98166.80
2019-03-02T01:16:59.259Z,98168.66
2019-03-02T01:19:27.948Z,98171.43
2019-03-02T01:21:56.369Z,98169.80
2019-03-02T01:24:24.744Z,98164.07
2019-03-02T01:26:55.617Z,98158.30
2019-03-02T01:29:23.534Z,98156.00
2019-03-02T01:31:51.923Z,98157.37
2019-03-02T01:34:20.551Z,98154.78
2019-03-02T01:36:48.956Z,98156.23
2019-03-02T01:39:17.644Z,98155.05
2019-03-02T01:41:46.032Z,98155.17
2019-03-02T01:44:16.377Z,98155.34
2019-03-02T01:46:44.554Z,98152.91
2019-03-02T01:49:13.204Z,98142.61
2019-03-02T01:51:41.889Z,98141.52
2019-03-02T01:54:10.576Z,98146.31
2019-03-02T01:56:41.392Z,98149.02
2019-03-02T01:59:49.158Z,98148.44
2019-03-02T02:02:17.544Z,98144.84
2019-03-02T02:04:46.280Z,98153.86
2019-03-02T02:07:18.003Z,98155.06
2019-03-02T02:09:45.084Z,98151.49
2019-03-02T02:12:13.883Z,98147.16
2019-03-02T02:14:42.555Z,98149.57
2019-03-02T02:17:11.248Z,98141.70
2019-03-02T02:19:39.719Z,98148.78
2019-03-02T02:22:08.321Z,98144.94
2019-03-02T02:24:36.962Z,98139.55
2019-03-02T02:27:05.348Z,98143.36
2019-03-02T02:29:33.740Z,98141.67
2019-03-02T02:32:02.390Z,98140.09
2019-03-02T02:34:30.787Z,98137.22
2019-03-02T02:37:00.169Z,98131.07
2019-03-02T02:39:33.550Z,98133.45
2019-03-02T02:42:00.075Z,98127.23
2019-03-02T02:44:49.149Z,98124.92
2019-03-02T02:47:17.549Z,98118.09
2019-03-02T02:49:49.195Z,98117.23
2019-03-02T02:52:16.306Z,98113.88
2019-03-02T02:54:44.680Z,98117.72
2019-03-02T02:57:13.359Z,98112.88
2019-03-02T02:59:41.765Z,98108.16
2019-03-02T03:02:11.970Z,98108.06
2019-03-02T03:04:40.546Z,98106.60
2019-03-02T03:07:12.362Z,98105.83
2019-03-02T03:12:28.417Z,98105.35
2019-03-02T03:14:58.511Z,98103.77
2019-03-02T03:17:28.052Z,98097.86
2019-03-02T03:19:57.539Z,98096.14
2019-03-02T03:22:26.230Z,98104.22
2019-03-02T03:25:17.956Z,98094.02
2019-03-02T03:27:47.624Z,98100.47
2019-03-02T03:30:54.352Z,98103.16
2019-03-02T03:33:22.752Z,98099.28
2019-03-02T03:35:51.638Z,98105.63
2019-03-02T03:38:40.872Z,98099.29
2019-03-02T03:41:09.506Z,98098.25
2019-03-02T03:43:42.464Z,98102.80
2019-03-02T03:46:08.280Z,98103.28
2019-03-02T03:48:36.956Z,98101.00
2019-03-02T03:51:05.356Z,98104.78
2019-03-02T03:53:34.036Z,98099.27
2019-03-02T03:56:43.977Z,98105.14
2019-03-02T03:59:14.156Z,98098.92
2019-03-02T04:01:42.705Z,98099.81
2019-03-02T04:04:11.467Z,98102.18
2019-03-02T04:06:40.164Z,98107.18
2019-03-02T04:09:48.483Z,98109.02
2019-03-02T04:12:19.914Z,98105.78
2019-03-02T04:14:47.217Z,98110.44
2019-03-02T04:17:15.961Z,98112.00
2019-03-02T04:19:44.343Z,98113.34
2019-03-02T04:22:52.650Z,98112.85
2019-03-02T04:25:21.045Z,98113.28
2019-03-02T04:27:54.159Z,98113.16
2019-03-02T04:30:39.189Z,98112.66
2019-03-02T04:33:07.877Z,98107.91
2019-03-02T04:35:36.266Z,98114.73
2019-03-02T04:38:24.292Z,98112.30
2019-03-02T04:40:52.748Z,98112.30
2019-03-02T04:43:21.462Z,98110.63
2019-03-02T04:45:50.151Z,98114.19
2019-03-02T04:48:18.537Z,98112.09
2019-03-02T04:50:46.939Z,98110.59
2019-03-02T04:53:16.595Z,98117.76
2019-03-02T04:55:48.613Z,98118.42
2019-03-02T04:58:16.445Z,98118.25
2019-03-02T05:00:44.860Z,98118.61
2019-03-02T05:03:13.244Z,98115.89
2019-03-02T05:05:43.428Z,98118.85
2019-03-02T05:08:11.832Z,98120.86
2019-03-02T05:10:40.286Z,98113.03
2019-03-02T05:13:08.688Z,98112.70
2019-03-02T05:15:37.073Z,98107.27
2019-03-02T05:18:05.461Z,98106.39
2019-03-02T05:20:34.099Z,98104.63
2019-03-02T05:23:02.476Z,98103.77
2019-03-02T05:25:30.880Z,98103.65
2019-03-02T05:27:59.557Z,98101.20
2019-03-02T05:30:30.515Z,98098.16
2019-03-02T05:32:58.362Z,98101.55
2019-03-02T05:35:27.054Z,98096.79
2019-03-02T05:37:55.456Z,98095.02
2019-03-02T05:40:24.391Z,98087.08
2019-03-02T05:42:53.954Z,98094.48
2019-03-02T05:46:02.255Z,98098.19
2019-03-02T05:48:30.652Z,98098.92
2019-03-02T05:50:59.296Z,98098.68
2019-03-02T05:53:30.248Z,98103.00
2019-03-02T05:55:57.811Z,98104.01
2019-03-02T05:58:26.255Z,98105.88
2019-03-02T06:00:54.649Z,98100.66
2019-03-02T06:03:23.045Z,98102.95
2019-03-02T06:05:51.435Z,98100.56
2019-03-02T06:08:20.096Z,98101.42
2019-03-02T06:10:48.488Z,98101.20
2019-03-02T06:13:18.833Z,98100.72
2019-03-02T06:15:46.996Z,98104.50
2019-03-02T06:18:15.383Z,98102.83
2019-03-02T06:20:44.718Z,98102.52
2019-03-02T06:23:13.896Z,98105.14
2019-03-02T06:25:42.280Z,98101.45
2019-03-02T06:28:10.677Z,98106.52
2019-03-02T06:30:40.574Z,98101.91
2019-03-02T06:33:09.405Z,98099.29
2019-03-02T06:35:37.846Z,98093.05
2019-03-02T06:38:06.238Z,98095.69
2019-03-02T06:40:34.641Z,98091.58
2019-03-02T06:43:03.024Z,98081.41
2019-03-02T06:45:31.733Z,98084.67
2019-03-02T06:48:00.404Z,98087.19
2019-03-02T06:50:31.787Z,98082.89
2019-03-02T06:53:01.444Z,98081.06
2019-03-02T06:55:29.337Z,98084.20
2019-03-02T06:57:57.724Z,98082.59
2019-03-02T07:00:26.349Z,98074.73
2019-03-02T07:02:55.082Z,98082.86
2019-03-02T07:05:23.464Z,98079.58
2019-03-02T07:07:53.639Z,98084.84
2019-03-02T07:10:41.924Z,98086.22
2019-03-02T07:15:59.661Z,98087.31
2019-03-02T07:21:17.426Z,98082.53
2019-03-02T07:23:45.818Z,98086.16
2019-03-02T07:26:33.839Z,98085.84
2019-03-02T07:29:02.472Z,98075.52
2019-03-02T07:31:30.852Z,98077.98
2019-03-02T07:33:59.258Z,98081.91
2019-03-02T07:36:33.824Z,98087.73
2019-03-02T07:38:58.084Z,98083.36
2019-03-02T07:41:26.777Z,98081.83
2019-03-02T07:43:55.460Z,98080.48
2019-03-02T07:46:23.867Z,98076.92
2019-03-02T07:48:52.251Z,98074.75
2019-03-02T07:51:20.636Z,98081.28
2019-03-02T07:53:49.040Z,98073.45
2019-03-02T07:56:17.764Z,98078.13
2019-03-02T07:58:46.458Z,98074.00
2019-03-02T08:01:16.740Z,98075.00
2019-03-02T08:03:44.964Z,98070.73
2019-03-02T08:06:13.637Z,98069.12
2019-03-02T08:08:42.042Z,98068.34
2019-03-02T08:11:13.255Z,98070.78
2019-03-02T08:13:40.539Z,98070.89
2019-03-02T08:16:08.940Z,98073.89
2019-03-02T08:18:37.324Z,98069.27
2019-03-02T08:21:05.718Z,98071.62
2019-03-02T08:23:34.120Z,98063.69
2019-03-02T08:26:02.500Z,98065.77
2019-03-02T08:28:30.894Z,98066.42
2019-03-02T08:30:59.298Z,98062.00
2019-03-02T08:33:30.595Z,98055.91
2019-03-02T08:35:58.036Z,98061.05
2019-03-02T08:38:26.444Z,98055.41
2019-03-02T08:40:56.280Z,98048.47
2019-03-02T08:43:25.497Z,98054.54
2019-03-02T08:45:54.120Z,98046.45
2019-03-02T08:48:22.831Z,98051.02
2019-03-02T08:50:53.097Z,98051.33
2019-03-02T08:53:21.743Z,98043.71
2019-03-02T08:55:51.539Z,98048.47
2019-03-02T08:58:19.920Z,98047.05
2019-03-02T09:00:48.621Z,98044.25
2019-03-02T09:03:37.270Z,98047.37
2019-03-02T09:06:11.460Z,98046.78
2019-03-02T09:08:37.205Z,98044.60
2019-03-02T09:11:25.080Z,98043.04
2019-03-02T09:13:53.481Z,98043.55
2019-03-02T09:16:41.900Z,98040.06
2019-03-02T09:19:11.643Z,98037.88
2019-03-02T09:21:40.364Z,98035.81
2019-03-02T09:24:09.424Z,98037.69
2019-03-02T09:26:58.832Z,98034.06
2019-03-02T09:29:27.516Z,98036.98
2019-03-02T09:31:55.917Z,98031.73
2019-03-02T09:34:24.535Z,98034.30
2019-03-02T09:36:52.921Z,98044.19
2019-03-02T09:39:23.649Z,98035.61
2019-03-02T09:41:51.754Z,98033.98
2019-03-02T09:44:20.154Z,98036.91
2019-03-02T09:46:48.536Z,98030.86
2019-03-02T09:49:16.918Z,98035.53
2019-03-02T09:51:48.240Z,98037.41
2019-03-02T09:54:15.690Z,98037.67
2019-03-02T09:56:45.690Z,98035.74
2019-03-02T09:59:14.077Z,98031.41
2019-03-02T10:01:42.459Z,98032.58
2019-03-02T10:04:11.167Z,98029.66
2019-03-02T10:06:39.609Z,98031.76
2019-03-02T10:09:27.699Z,98030.50
2019-03-02T10:11:56.373Z,98035.60
2019-03-02T10:15:04.676Z,98032.34
2019-03-02T10:17:34.854Z,98029.71
2019-03-02T10:22:58.387Z,98029.45
2019-03-02T10:25:31.853Z,98031.40
2019-03-02T10:27:57.528Z,98036.34
2019-03-02T10:30:27.541Z,98035.70
2019-03-02T10:32:57.503Z,98034.32
2019-03-02T10:35:26.231Z,98034.17
2019-03-02T10:37:55.018Z,98031.78
2019-03-02T10:40:23.605Z,98032.28
2019-03-02T10:42:53.819Z,98029.06
2019-03-02T10:46:02.366Z,98034.70
2019-03-02T10:48:31.027Z,98033.77
2019-03-02T10:51:02.313Z,98031.72
2019-03-02T10:53:29.540Z,98029.26
2019-03-02T10:55:58.171Z,98035.95
2019-03-02T10:58:26.560Z,98031.61
2019-03-02T11:00:55.038Z,98035.96
2019-03-02T11:03:23.416Z,98034.81
2019-03-02T11:06:10.932Z,98030.91
2019-03-02T11:09:03.839Z,98023.66
2019-03-02T11:14:27.768Z,98025.27
2019-03-02T11:17:19.661Z,98027.08
2019-03-02T11:20:05.974Z,98017.92
2019-03-02T11:22:53.713Z,98021.03
2019-03-02T11:25:41.536Z,98024.33
2019-03-02T11:28:29.275Z,98021.60
2019-03-02T11:33:52.545Z,98017.44
2019-03-02T11:39:53.138Z,98012.94
2019-03-02T11:45:49.300Z,98015.52
2019-03-02T11:48:37.044Z,98008.78
2019-03-02T11:51:27.092Z,98014.60
2019-03-02T11:57:03.482Z,98011.36
2019-03-02T11:59:50.981Z,98002.66
2019-03-02T12:02:38.744Z,97999.44
2019-03-02T12:05:47.038Z,97994.47
2019-03-02T12:08:34.792Z,97989.98
2019-03-02T12:11:22.349Z,97986.80
2019-03-02T12:14:10.170Z,97985.28
2019-03-02T12:19:48.185Z,97986.91
2019-03-02T12:22:35.724Z,97985.78
2019-03-02T12:30:57.210Z,97974.25
2019-03-02T12:33:44.711Z,97968.69
2019-03-02T12:36:32.227Z,97976.59
2019-03-02T12:39:23.789Z,97973.78
2019-03-02T12:47:20.240Z,97971.41
2019-03-02T12:50:08.025Z,97962.12
2019-03-02T12:55:34.697Z,97968.00
2019-03-02T13:01:11.287Z,97959.84
2019-03-02T13:06:47.885Z,97950.61
2019-03-02T13:09:36.961Z,97948.08
2019-03-02T13:12:25.125Z,97949.83
2019-03-02T13:18:01.957Z,97943.30
2019-03-02T13:23:38.955Z,97936.88
2019-03-02T13:26:27.785Z,97936.06
2019-03-02T13:31:50.505Z,97930.81
2019-03-02T13:34:38.271Z,97926.05
2019-03-02T13:37:45.132Z,97925.32
2019-03-02T13:40:33.763Z,97923.28
2019-03-02T13:43:24.671Z,97921.30
2019-03-02T13:51:40.086Z,97926.69
2019-03-02T13:54:27.608Z,97927.61
2019-03-02T13:57:15.130Z,97924.39
2019-03-02T14:00:03.502Z,97928.88
2019-03-02T14:02:52.342Z,97917.69
2019-03-02T14:05:41.989Z,97910.02
2019-03-02T14:16:19.770Z,97915.20
2019-03-02T14:21:56.609Z,97906.34
2019-03-02T14:24:46.900Z,97910.32
2019-03-02T14:30:08.976Z,97906.41
2019-03-02T14:32:56.716Z,97904.09
2019-03-02T14:38:20.234Z,97906.27
2019-03-02T14:41:09.033Z,97907.36
2019-03-02T14:43:57.214Z,97902.52
2019-03-02T14:46:46.022Z,97900.03
2019-03-02T14:49:33.769Z,97906.58
2019-03-02T14:55:10.618Z,97910.84
2019-03-02T15:00:47.209Z,97913.20
2019-03-02T15:03:34.711Z,97918.05
2019-03-02T15:06:22.465Z,97918.73
2019-03-02T15:11:59.302Z,97907.58
2019-03-02T15:14:46.809Z,97905.64
2019-03-02T15:17:34.519Z,97913.05
2019-03-02T15:23:44.101Z,97899.59
2019-03-02T15:29:20.692Z,97900.88
2019-03-02T15:34:58.884Z,97903.98
2019-03-02T15:37:46.761Z,97898.94
2019-03-02T15:40:34.348Z,97903.94
2019-03-02T15:46:10.946Z,97903.70
2019-03-02T15:48:59.705Z,97904.02
2019-03-02T15:51:49.460Z,97906.12
2019-03-02T15:54:36.996Z,97900.72
2019-03-02T15:57:24.756Z,97899.77
2019-03-02T16:00:13.445Z,97903.38
2019-03-02T16:03:01.801Z,97907.95
2019-03-02T16:05:49.318Z,97907.88
2019-03-02T16:08:37.106Z,97908.55
2019-03-02T16:11:32.485Z,97916.38
2019-03-02T16:19:28.985Z,97904.75
2019-03-02T16:22:34.259Z,97907.35
2019-03-02T16:25:21.814Z,97903.88
2019-03-02T16:28:09.540Z,97906.31
2019-03-02T16:33:36.536Z,97892.52
2019-03-02T16:36:24.352Z,97896.27
2019-03-02T16:39:11.920Z,97896.76
2019-03-02T16:41:59.732Z,97892.55
2019-03-02T16:47:23.157Z,97894.71
2019-03-02T16:50:12.943Z,97891.75
2019-03-02T16:53:22.567Z,97899.84
2019-03-02T16:58:59.271Z,97898.31
2019-03-02T17:01:46.933Z,97904.09
2019-03-02T17:04:34.436Z,97893.36
2019-03-02T17:07:23.286Z,97896.87
2019-03-02T17:10:11.555Z,97901.49
2019-03-02T17:18:25.335Z,97898.25
2019-03-02T17:21:12.524Z,97899.27
2019-03-02T17:24:00.036Z,97908.05
2019-03-02T17:26:49.446Z,97909.10
2019-03-02T17:29:36.824Z,97906.25
2019-03-02T17:32:45.130Z,97916.31
2019-03-02T17:35:32.983Z,97903.98
2019-03-02T17:38:44.071Z,97905.59
2019-03-02T17:41:30.796Z,97913.13
2019-03-02T17:44:18.719Z,97912.47
2019-03-02T17:47:08.045Z,97914.56
2019-03-02T17:49:55.739Z,97920.11
2019-03-02T17:55:18.738Z,97935.22
2019-03-02T18:03:34.750Z,97946.61
2019-03-02T18:06:23.874Z,97950.19
2019-03-02T18:11:51.169Z,97958.98
2019-03-02T18:14:38.707Z,97947.11
2019-03-02T18:17:26.440Z,97950.19
2019-03-02T18:19:55.107Z,97950.02
2019-03-02T18:22:23.491Z,97959.00
2019-03-02T18:25:12.218Z,97959.06
2019-03-02T18:27:41.605Z,97958.77
2019-03-02T18:30:50.144Z,97953.88
2019-03-02T18:33:37.641Z,97962.17
2019-03-02T18:36:09.809Z,97972.48
2019-03-02T18:38:36.911Z,97982.84
2019-03-02T18:41:05.698Z,97993.74
2019-03-02T18:43:34.338Z,97987.73
2019-03-02T18:46:02.973Z,97993.86
2019-03-02T18:48:50.484Z,98005.58
2019-03-02T18:51:40.919Z,98002.17
2019-03-02T18:54:27.387Z,98005.20
2019-03-02T18:56:55.779Z,98012.42
2019-03-02T18:59:24.154Z,98008.80
2019-03-02T19:01:52.547Z,98017.53
2019-03-02T19:04:40.266Z,98009.88
2019-03-02T19:07:08.659Z,98016.27
2019-03-02T19:09:37.328Z,98021.72
2019-03-02T19:12:05.728Z,98023.77
2019-03-02T19:14:34.154Z,98026.61
2019-03-02T19:17:22.130Z,98034.25
2019-03-02T19:19:50.513Z,98028.25
2019-03-02T19:22:19.186Z,98032.41
2019-03-02T19:24:47.873Z,98028.48
2019-03-02T19:27:16.560Z,98036.53
2019-03-02T19:29:44.961Z,98038.50
2019-03-02T19:32:13.340Z,98029.36
2019-03-02T19:34:41.727Z,98035.83
2019-03-02T19:37:10.116Z,98032.61
2019-03-02T19:39:38.767Z,98033.17
2019-03-02T19:42:07.445Z,98030.23
2019-03-02T19:44:36.136Z,98034.75
2019-03-02T19:47:04.520Z,98030.76
2019-03-02T19:49:33.376Z,98026.45
2019-03-02T19:52:02.079Z,98031.28
2019-03-02T19:54:30.978Z,98034.53
2019-03-02T19:56:59.391Z,98029.05
2019-03-02T19:59:27.800Z,98032.53
2019-03-02T20:01:56.246Z,98034.78
2019-03-02T20:04:24.864Z,98030.73
2019-03-02T20:06:53.263Z,98022.00
2019-03-02T20:10:01.791Z,98026.04
2019-03-02T20:12:30.183Z,98031.30
2019-03-02T20:14:58.635Z,98025.25
2019-03-02T20:17:27.030Z,98022.50
2019-03-02T20:19:55.725Z,98023.61
2019-03-02T20:22:24.346Z,98021.78
2019-03-02T20:24:52.737Z,98020.31
2019-03-02T20:27:21.114Z,98026.50
2019-03-02T20:29:49.853Z,98024.34
2019-03-02T20:32:18.543Z,98024.12
2019-03-02T20:34:47.227Z,98035.44
2019-03-02T20:37:15.916Z,98035.86
2019-03-02T20:39:44.703Z,98034.53
2019-03-02T20:42:13.108Z,98034.23
2019-03-02T20:44:41.491Z,98041.34
2019-03-02T20:47:10.147Z,98044.59
2019-03-02T20:49:38.848Z,98044.55
2019-03-02T20:52:07.219Z,98047.22
2019-03-02T20:54:35.614Z,98036.13
2019-03-02T20:57:03.996Z,98044.11
2019-03-02T20:59:32.380Z,98044.38
2019-03-02T21:02:00.843Z,98050.42
2019-03-02T21:04:29.652Z,98049.05
2019-03-02T21:06:58.109Z,98052.22
2019-03-02T21:09:26.491Z,98044.19
2019-03-02T21:11:54.894Z,98047.23
2019-03-02T21:14:23.273Z,98036.91
2019-03-02T21:16:51.918Z,98038.92
2019-03-02T21:19:40.064Z,98042.73
2019-03-02T21:22:08.447Z,98041.44
2019-03-02T21:24:37.178Z,98041.04
2019-03-02T21:27:05.647Z,98044.66
2019-03-02T21:29:34.268Z,98040.80
2019-03-02T21:32:02.978Z,98045.25
2019-03-02T21:34:31.662Z,98046.73
2019-03-02T21:37:00.351Z,98050.75
2019-03-02T21:39:28.732Z,98047.55
2019-03-02T21:41:57.111Z,98051.63
2019-03-02T21:44:25.798Z,98054.06
2019-03-02T21:46:54.175Z,98060.75
2019-03-02T21:49:22.569Z,98053.31
2019-03-02T21:52:10.594Z,98051.63
2019-03-02T21:54:38.987Z,98055.20
2019-03-02T21:57:07.366Z,98052.13
2019-03-02T21:59:35.746Z,98048.31
2019-03-02T22:02:04.214Z,98052.63
2019-03-02T22:04:32.894Z,98054.74
2019-03-02T22:07:01.307Z,98063.45
2019-03-02T22:09:29.672Z,98062.86
2019-03-02T22:11:58.053Z,98067.94
2019-03-02T22:14:26.720Z,98074.88
2019-03-02T22:16:55.102Z,98077.44
2019-03-02T22:19:23.503Z,98077.67
2019-03-02T22:22:11.229Z,98080.23
2019-03-02T22:24:39.698Z,98081.33
2019-03-02T22:27:08.084Z,98081.92
2019-03-02T22:29:36.463Z,98080.05
2019-03-02T22:32:04.859Z,98079.95
2019-03-02T22:34:33.247Z,98074.45
2019-03-02T22:37:01.647Z,98080.31
2019-03-02T22:39:30.027Z,98081.19
2019-03-02T22:41:58.406Z,98072.30
2019-03-02T22:44:27.128Z,98071.92
2019-03-02T22:46:55.809Z,98067.16
2019-03-02T22:49:24.441Z,98068.11
2019-03-02T22:51:52.818Z,98061.80
2019-03-02T22:54:21.976Z,98057.22
2019-03-02T22:57:09.753Z,98056.84
2019-03-02T23:00:18.272Z,98063.80
2019-03-02T23:02:45.747Z,98059.05
2019-03-02T23:05:14.194Z,98058.34
2019-03-02T23:07:42.597Z,98059.96
2019-03-02T23:10:51.130Z,98064.03
2019-03-02T23:13:20.082Z,98061.97
2019-03-02T23:15:48.536Z,98067.05
2019-03-02T23:18:36.272Z,98068.98
2019-03-02T23:21:04.658Z,98063.31
2019-03-02T23:23:33.054Z,98063.86
2019-03-02T23:26:01.435Z,98066.55
2019-03-02T23:28:30.063Z,98067.25
2019-03-02T23:30:58.457Z,98066.05
2019-03-02T23:33:26.836Z,98056.53
2019-03-02T23:36:35.137Z,98059.28
2019-03-02T23:42:11.858Z,98058.41
2019-03-02T23:44:40.237Z,98052.41
2019-03-02T23:47:08.926Z,98053.69
2019-03-02T23:49:37.606Z,98052.04
2019-03-02T23:52:06.055Z,98055.23
2019-03-02T23:54:34.455Z,98052.17
2019-03-02T23:57:02.834Z,98055.30
2019-03-02T23:59:31.213Z,98051.67
